Time;durP1;ratioP1;P1;durP2;ratioP2;P2;SDS_P1;SDS_P2;PMS_P1;PMS_P2;Temp;Humidity;BMP_temperature;BMP_pressure;BME280_temperature;BME280_humidity;BME280_pressure;Samples;Min_cycle;Max_cycle;Signal;HPM_P1;HPM_P2
2022/06/30 00:01:50;;;;;;;2.50;2.33;;;;;;;;;;6177112;28;20308;-74
2022/06/30 00:05:11;;;;;;;3.20;2.53;;;;;;;;;;6173073;28;21279;-74
2022/06/30 00:08:33;;;;;;;3.00;2.63;;;;;;;;;;6168726;28;20230;-74
2022/06/30 00:11:53;;;;;;;3.28;2.33;;;;;;;;;;6142709;28;20230;-75
2022/06/30 00:15:14;;;;;;;3.53;2.90;;;;;;;;;;6165033;28;20545;-75
2022/06/30 00:18:35;;;;;;;2.35;2.15;;;;;;;;;;6171764;28;20607;-74
2022/06/30 00:21:55;;;;;;;2.75;2.55;;;;;;;;;;6169621;28;20631;-74
2022/06/30 00:25:18;;;;;;;3.85;3.42;;;;;;;;;;6170319;28;20644;-75
2022/06/30 00:28:38;;;;;;;2.90;2.30;;;;;;;;;;6170282;28;20249;-75
2022/06/30 00:31:59;;;;;;;2.38;2.17;;;;;;;;;;6167475;28;20237;-75
2022/06/30 00:35:19;;;;;;;3.90;2.88;;;;;;;;;;6172227;28;20317;-76
2022/06/30 00:38:40;;;;;;;2.70;2.50;;;;;;;;;;6164554;28;20221;-75
2022/06/30 00:42:02;;;;;;;3.70;2.97;;;;;;;;;;6171749;28;20230;-76
2022/06/30 00:45:23;;;;;;;2.30;2.10;;;;;;;;;;6170726;28;20230;-75
2022/06/30 00:48:44;;;;;;;2.42;2.22;;;;;;;;;;6172693;28;20659;-75
2022/06/30 00:52:07;;;;;;;3.03;2.55;;;;;;;;;;6171715;28;20238;-75
2022/06/30 00:55:28;;;;;;;2.40;2.10;;;;;;;;;;6170207;28;20230;-75
2022/06/30 00:58:52;;;;;;;3.15;2.95;;;;;;;;;;6171458;28;20221;-74
2022/06/30 01:02:13;;;;;;;3.95;2.38;;;;;;;;;;6173456;28;20225;-75
2022/06/30 01:05:34;;;;;;;3.03;2.45;;;;;;;;;;6173110;28;20495;-74
2022/06/30 01:08:54;;;;;;;7.53;2.38;;;;;;;;;;6176551;28;21184;-75
2022/06/30 01:15:54;;;;;;;3.40;2.40;;;;;;;;;;6175870;28;20292;-75
2022/06/30 01:19:15;;;;;;;2.55;2.35;;;;;;;;;;6173931;28;20226;-75
2022/06/30 01:22:37;;;;;;;3.45;2.72;;;;;;;;;;6172226;28;20225;-76
2022/06/30 01:25:58;;;;;;;3.45;2.42;;;;;;;;;;6176641;28;20328;-75
2022/06/30 01:29:18;;;;;;;4.13;2.67;;;;;;;;;;6174284;28;20279;-75
2022/06/30 01:32:39;;;;;;;2.30;2.10;;;;;;;;;;6176734;28;20214;-75
2022/06/30 01:35:59;;;;;;;6.35;2.42;;;;;;;;;;6179164;28;20321;-74
2022/06/30 01:39:21;;;;;;;5.30;2.90;;;;;;;;;;6178527;28;20320;-76
2022/06/30 01:42:42;;;;;;;2.83;2.63;;;;;;;;;;6174081;28;20234;-75
2022/06/30 01:46:02;;;;;;;2.63;2.30;;;;;;;;;;6177841;28;20898;-75
2022/06/30 01:49:23;;;;;;;3.28;2.58;;;;;;;;;;6189781;28;20237;-75
2022/06/30 01:52:43;;;;;;;2.42;2.22;;;;;;;;;;6186242;28;20283;-75
2022/06/30 01:56:05;;;;;;;4.43;3.08;;;;;;;;;;6174641;28;20597;-75
2022/06/30 01:59:26;;;;;;;2.33;2.13;;;;;;;;;;6177460;28;20671;-77
2022/06/30 02:02:48;;;;;;;2.83;2.63;;;;;;;;;;6177654;28;20233;-74
2022/06/30 02:06:09;;;;;;;2.20;2.00;;;;;;;;;;6180263;28;20229;-76
2022/06/30 02:09:29;;;;;;;2.95;2.75;;;;;;;;;;6173236;28;20268;-77
2022/06/30 02:12:51;;;;;;;2.53;2.38;;;;;;;;;;6179807;28;20226;-76
2022/06/30 02:16:12;;;;;;;3.22;2.47;;;;;;;;;;6173827;28;21040;-76
2022/06/30 02:19:33;;;;;;;2.80;2.60;;;;;;;;;;6180597;28;20532;-75
2022/06/30 02:22:54;;;;;;;3.13;2.35;;;;;;;;;;6179931;28;20234;-74
2022/06/30 02:26:15;;;;;;;3.08;2.40;;;;;;;;;;6179413;28;20221;-74
2022/06/30 02:29:37;;;;;;;2.83;2.50;;;;;;;;;;6179594;28;20230;-75
2022/06/30 02:32:58;;;;;;;2.67;2.47;;;;;;;;;;6170534;28;20234;-76
2022/06/30 02:36:18;;;;;;;2.88;2.50;;;;;;;;;;6180167;28;20407;-75
2022/06/30 02:39:39;;;;;;;2.78;2.22;;;;;;;;;;6170404;28;21764;-75
2022/06/30 02:43:00;;;;;;;2.78;2.58;;;;;;;;;;6178894;28;20226;-76
2022/06/30 02:46:22;;;;;;;4.57;3.28;;;;;;;;;;6178100;28;20547;-75
2022/06/30 02:49:43;;;;;;;4.03;3.30;;;;;;;;;;6177875;28;20606;-77
2022/06/30 02:53:04;;;;;;;3.33;3.03;;;;;;;;;;6170511;28;20229;-76
2022/06/30 02:56:25;;;;;;;3.15;2.85;;;;;;;;;;6185637;28;20432;-77
2022/06/30 02:59:45;;;;;;;5.30;3.00;;;;;;;;;;6174005;28;21002;-75
2022/06/30 03:03:07;;;;;;;2.95;2.63;;;;;;;;;;6174113;28;20226;-75
2022/06/30 03:06:28;;;;;;;4.65;3.47;;;;;;;;;;6176151;28;20531;-75
2022/06/30 03:09:49;;;;;;;3.95;2.80;;;;;;;;;;6172372;28;20234;-75
2022/06/30 03:13:11;;;;;;;4.53;3.80;;;;;;;;;;6178741;28;20603;-76
2022/06/30 03:16:32;;;;;;;4.65;4.25;;;;;;;;;;6176013;28;20246;-78
2022/06/30 03:19:54;;;;;;;10.65;4.20;;;;;;;;;;6174709;28;20248;-77
2022/06/30 03:23:14;;;;;;;5.07;4.35;;;;;;;;;;6166077;28;20867;-76
2022/06/30 03:26:37;;;;;;;4.15;3.80;;;;;;;;;;6174339;28;20560;-77
2022/06/30 03:29:57;;;;;;;4.07;3.67;;;;;;;;;;6174859;28;20279;-75
2022/06/30 03:33:18;;;;;;;4.15;3.72;;;;;;;;;;6173829;28;20491;-77
2022/06/30 03:36:40;;;;;;;4.10;3.55;;;;;;;;;;6181676;28;20785;-75
2022/06/30 03:40:01;;;;;;;4.82;4.13;;;;;;;;;;6168519;28;20225;-77
2022/06/30 03:43:22;;;;;;;5.50;4.50;;;;;;;;;;6173348;28;20680;-76
2022/06/30 03:46:42;;;;;;;5.53;4.97;;;;;;;;;;6171099;28;20229;-74
2022/06/30 03:50:03;;;;;;;5.68;4.97;;;;;;;;;;6168252;28;20226;-76
2022/06/30 03:53:25;;;;;;;7.47;4.15;;;;;;;;;;6177320;28;21181;-76
2022/06/30 03:56:45;;;;;;;7.75;4.35;;;;;;;;;;6172078;28;20320;-76
2022/06/30 04:00:07;;;;;;;6.47;5.13;;;;;;;;;;6159671;28;20229;-76
2022/06/30 04:03:27;;;;;;;5.43;4.53;;;;;;;;;;6164471;28;20237;-76
2022/06/30 04:06:48;;;;;;;8.02;6.15;;;;;;;;;;6168361;28;20229;-74
2022/06/30 04:10:11;;;;;;;4.85;4.45;;;;;;;;;;6172694;28;20234;-76
2022/06/30 04:13:32;;;;;;;4.38;3.97;;;;;;;;;;6173408;28;20230;-75
2022/06/30 04:16:52;;;;;;;8.88;8.05;;;;;;;;;;6173413;28;20580;-76
2022/06/30 04:20:16;;;;;;;4.38;3.97;;;;;;;;;;6170283;28;20674;-76
2022/06/30 04:23:36;;;;;;;4.78;4.38;;;;;;;;;;6172778;28;20230;-76
2022/06/30 04:26:59;;;;;;;4.07;3.78;;;;;;;;;;6171913;28;20667;-76
2022/06/30 04:32:37;;;;;;;4.05;3.42;;;;;;;;;;6176220;28;20268;-76
2022/06/30 04:34:00;;;;;;;4.50;3.47;;;;;;;;;;6174942;28;20234;-75
2022/06/30 04:37:20;;;;;;;3.55;3.30;;;;;;;;;;6173720;28;20234;-74
2022/06/30 04:44:20;;;;;;;3.85;3.42;;;;;;;;;;6178336;28;20230;-73
2022/06/30 04:47:41;;;;;;;6.95;3.60;;;;;;;;;;6175180;28;20520;-74
2022/06/30 04:51:02;;;;;;;4.80;3.88;;;;;;;;;;6179887;28;20241;-74
2022/06/30 04:54:22;;;;;;;6.15;5.63;;;;;;;;;;6175448;28;20229;-74
2022/06/30 04:57:43;;;;;;;5.57;4.57;;;;;;;;;;6169585;28;20226;-74
2022/06/30 05:01:05;;;;;;;3.58;3.25;;;;;;;;;;6178173;28;20670;-76
2022/06/30 05:04:26;;;;;;;4.38;3.25;;;;;;;;;;6176667;28;20233;-76
2022/06/30 05:07:47;;;;;;;3.40;3.10;;;;;;;;;;6175178;28;20222;-75
2022/06/30 05:11:07;;;;;;;3.45;3.15;;;;;;;;;;6172374;28;20238;-75
2022/06/30 05:14:28;;;;;;;3.30;2.67;;;;;;;;;;6177946;28;20226;-75
2022/06/30 05:17:50;;;;;;;5.93;3.25;;;;;;;;;;6171003;28;20225;-74
2022/06/30 05:21:10;;;;;;;4.35;3.22;;;;;;;;;;6171273;28;20230;-74
2022/06/30 05:28:09;;;;;;;3.85;3.55;;;;;;;;;;6176390;28;20587;-74
2022/06/30 05:31:31;;;;;;;3.28;2.78;;;;;;;;;;6171858;28;22022;-74
2022/06/30 05:34:53;;;;;;;3.13;2.92;;;;;;;;;;6176761;28;20233;-76
2022/06/30 05:38:16;;;;;;;4.35;3.10;;;;;;;;;;6171976;28;20516;-76
2022/06/30 05:41:37;;;;;;;3.13;2.83;;;;;;;;;;6171964;28;20225;-74
2022/06/30 05:44:58;;;;;;;3.97;3.65;;;;;;;;;;6169298;28;20234;-75
2022/06/30 05:48:19;;;;;;;5.40;3.10;;;;;;;;;;6175211;28;20238;-75
2022/06/30 05:51:40;;;;;;;5.15;3.15;;;;;;;;;;6178424;28;20647;-75
2022/06/30 05:55:01;;;;;;;5.82;3.30;;;;;;;;;;6176961;28;20625;-74
2022/06/30 05:58:21;;;;;;;5.93;3.40;;;;;;;;;;6174660;28;20691;-75
2022/06/30 06:01:42;;;;;;;4.38;3.22;;;;;;;;;;6173714;28;20226;-76
2022/06/30 06:05:03;;;;;;;4.55;3.72;;;;;;;;;;6174523;28;20892;-77
2022/06/30 06:08:25;;;;;;;3.13;2.83;;;;;;;;;;6171771;28;21840;-76
2022/06/30 06:11:45;;;;;;;3.63;2.85;;;;;;;;;;6170799;28;20243;-77
2022/06/30 06:15:06;;;;;;;4.63;2.95;;;;;;;;;;6165933;28;20246;-76
2022/06/30 06:18:27;;;;;;;3.58;2.85;;;;;;;;;;6176592;28;20237;-73
2022/06/30 06:21:48;;;;;;;2.70;2.50;;;;;;;;;;6176948;28;20317;-76
2022/06/30 06:25:10;;;;;;;2.83;2.60;;;;;;;;;;6181011;28;20498;-76
2022/06/30 06:32:09;;;;;;;2.80;2.60;;;;;;;;;;6172367;28;20237;-77
2022/06/30 06:35:30;;;;;;;3.25;3.00;;;;;;;;;;6181433;28;20241;-75
2022/06/30 06:38:51;;;;;;;3.25;3.00;;;;;;;;;;6178047;28;20234;-78
2022/06/30 06:42:13;;;;;;;6.28;3.92;;;;;;;;;;6160113;28;20234;-77
2022/06/30 06:45:34;;;;;;;5.65;3.63;;;;;;;;;;6174862;28;20234;-79
2022/06/30 06:48:55;;;;;;;4.70;2.63;;;;;;;;;;6158406;28;20234;-74
2022/06/30 06:52:15;;;;;;;4.82;3.03;;;;;;;;;;6176635;28;20234;-75
2022/06/30 06:55:36;;;;;;;3.55;3.22;;;;;;;;;;6166337;28;20318;-77
2022/06/30 06:58:59;;;;;;;3.33;2.97;;;;;;;;;;6178073;28;20250;-75
2022/06/30 07:02:20;;;;;;;4.22;3.00;;;;;;;;;;6175046;28;20234;-76
2022/06/30 07:05:41;;;;;;;3.70;2.97;;;;;;;;;;6180670;28;20681;-75
2022/06/30 07:09:01;;;;;;;3.92;2.72;;;;;;;;;;6173376;28;20237;-72
2022/06/30 07:12:21;;;;;;;5.93;2.95;;;;;;;;;;6175373;28;20615;-78
2022/06/30 07:15:44;;;;;;;2.92;2.72;;;;;;;;;;6172193;28;20242;-78
2022/06/30 07:19:04;;;;;;;4.03;3.63;;;;;;;;;;6176720;28;20774;-79
2022/06/30 07:22:25;;;;;;;4.22;3.53;;;;;;;;;;6174922;28;20234;-77
2022/06/30 07:25:46;;;;;;;4.40;3.28;;;;;;;;;;6176660;28;20928;-80
2022/06/30 07:29:07;;;;;;;3.50;2.78;;;;;;;;;;6179031;28;20254;-78
2022/06/30 07:32:29;;;;;;;6.40;3.42;;;;;;;;;;6174774;28;20607;-75
2022/06/30 07:35:49;;;;;;;3.85;3.45;;;;;;;;;;6173667;28;21172;-77
2022/06/30 07:39:10;;;;;;;3.75;3.45;;;;;;;;;;6166994;28;20952;-79
2022/06/30 07:42:30;;;;;;;3.65;2.85;;;;;;;;;;6174601;28;20599;-79
2022/06/30 07:45:52;;;;;;;3.85;3.28;;;;;;;;;;6172411;28;20325;-79
2022/06/30 07:49:14;;;;;;;5.35;4.05;;;;;;;;;;6171924;28;20485;-76
2022/06/30 07:52:34;;;;;;;4.70;3.65;;;;;;;;;;6169665;28;20329;-74
2022/06/30 07:55:55;;;;;;;5.30;3.30;;;;;;;;;;6169570;28;20245;-72
2022/06/30 07:59:16;;;;;;;4.25;2.92;;;;;;;;;;6167058;28;20226;-76
2022/06/30 08:02:36;;;;;;;4.10;3.58;;;;;;;;;;6170412;28;20571;-74
2022/06/30 08:05:58;;;;;;;3.70;2.90;;;;;;;;;;6161818;28;20752;-79
2022/06/30 08:09:19;;;;;;;4.07;3.28;;;;;;;;;;6164227;28;20233;-75
2022/06/30 08:12:40;;;;;;;5.72;4.00;;;;;;;;;;6173046;28;20253;-79
2022/06/30 08:16:00;;;;;;;3.20;2.83;;;;;;;;;;6177379;28;20245;-78
2022/06/30 08:19:21;;;;;;;3.95;2.97;;;;;;;;;;6170222;28;20257;-76
2022/06/30 08:22:42;;;;;;;5.20;3.45;;;;;;;;;;6179112;28;20541;-75
2022/06/30 08:26:03;;;;;;;3.55;3.35;;;;;;;;;;6168028;28;20238;-74
2022/06/30 08:29:23;;;;;;;3.42;3.10;;;;;;;;;;6165424;28;20575;-75
2022/06/30 08:32:44;;;;;;;4.28;3.28;;;;;;;;;;6182264;28;20245;-78
2022/06/30 08:36:05;;;;;;;4.60;3.25;;;;;;;;;;6176574;28;20237;-74
2022/06/30 08:43:05;;;;;;;3.30;3.00;;;;;;;;;;6180903;28;20229;-76
2022/06/30 08:46:27;;;;;;;3.22;2.90;;;;;;;;;;6167677;28;21568;-76
2022/06/30 08:49:47;;;;;;;5.25;3.72;;;;;;;;;;6176249;28;20234;-76
2022/06/30 08:53:08;;;;;;;3.35;3.03;;;;;;;;;;6178320;28;20234;-75
2022/06/30 08:56:31;;;;;;;4.40;3.58;;;;;;;;;;6176548;28;20246;-78
2022/06/30 08:59:52;;;;;;;2.80;2.30;;;;;;;;;;6176144;28;20631;-78
2022/06/30 09:03:13;;;;;;;6.72;3.88;;;;;;;;;;6169656;28;20254;-76
2022/06/30 09:06:33;;;;;;;3.17;2.97;;;;;;;;;;6174774;28;20225;-76
2022/06/30 09:09:54;;;;;;;2.83;2.65;;;;;;;;;;6175067;28;20245;-77
2022/06/30 09:13:16;;;;;;;3.55;2.80;;;;;;;;;;6173827;28;20238;-78
2022/06/30 09:16:37;;;;;;;2.83;2.63;;;;;;;;;;6172487;28;20237;-78
2022/06/30 09:19:59;;;;;;;3.55;2.63;;;;;;;;;;6170685;28;20237;-76
2022/06/30 09:23:20;;;;;;;3.33;2.65;;;;;;;;;;6170185;28;20236;-74
2022/06/30 09:26:41;;;;;;;3.33;2.50;;;;;;;;;;6177564;28;20241;-74
2022/06/30 09:30:04;;;;;;;4.38;2.95;;;;;;;;;;6179721;28;20233;-73
2022/06/30 09:33:33;;;;;;;2.60;2.35;;;;;;;;;;6175671;28;20233;-73
2022/06/30 09:36:54;;;;;;;3.28;2.63;;;;;;;;;;6169786;28;20225;-76
2022/06/30 09:40:14;;;;;;;4.05;2.67;;;;;;;;;;6180410;28;20233;-74
2022/06/30 09:43:35;;;;;;;2.58;2.33;;;;;;;;;;6175198;28;20249;-76
2022/06/30 09:46:59;;;;;;;3.63;3.33;;;;;;;;;;6168753;28;20233;-76
2022/06/30 09:50:20;;;;;;;3.63;3.38;;;;;;;;;;6173049;28;20256;-77
2022/06/30 09:53:41;;;;;;;4.07;3.67;;;;;;;;;;6180836;28;20226;-77
2022/06/30 09:57:02;;;;;;;3.35;3.03;;;;;;;;;;6177463;28;20230;-74
2022/06/30 10:00:23;;;;;;;2.83;2.63;;;;;;;;;;6179536;28;20315;-76
2022/06/30 10:03:47;;;;;;;4.32;2.40;;;;;;;;;;6174675;28;20230;-76
2022/06/30 10:07:07;;;;;;;2.65;2.50;;;;;;;;;;6170597;28;20320;-73
2022/06/30 10:10:29;;;;;;;3.63;2.80;;;;;;;;;;6173821;28;20229;-74
2022/06/30 10:13:49;;;;;;;3.22;2.92;;;;;;;;;;6176832;28;20262;-69
2022/06/30 10:17:10;;;;;;;2.70;2.50;;;;;;;;;;6167841;28;20245;-67
2022/06/30 10:20:38;;;;;;;4.05;3.65;;;;;;;;;;6171879;28;20239;-67
2022/06/30 10:23:59;;;;;;;3.90;3.60;;;;;;;;;;6170678;28;20256;-67
2022/06/30 10:27:20;;;;;;;6.18;3.20;;;;;;;;;;6168962;28;20241;-66
2022/06/30 10:30:45;;;;;;;3.25;2.92;;;;;;;;;;6166140;28;20229;-67
2022/06/30 10:34:09;;;;;;;2.58;2.38;;;;;;;;;;6177107;28;20784;-67
2022/06/30 10:37:34;;;;;;;2.30;2.20;;;;;;;;;;6170013;28;20329;-67
2022/06/30 10:40:59;;;;;;;2.95;2.72;;;;;;;;;;6172120;28;20262;-66
2022/06/30 10:44:21;;;;;;;3.33;3.05;;;;;;;;;;6173298;28;20238;-67
2022/06/30 10:47:55;;;;;;;4.80;3.45;;;;;;;;;;6172645;28;20296;-66
2022/06/30 10:51:16;;;;;;;2.85;2.53;;;;;;;;;;6176378;28;20253;-67
2022/06/30 10:54:42;;;;;;;4.30;2.97;;;;;;;;;;6178740;28;20607;-68
2022/06/30 10:58:05;;;;;;;3.97;3.58;;;;;;;;;;6172890;28;20612;-67
2022/06/30 11:01:26;;;;;;;3.47;3.17;;;;;;;;;;6171326;28;20643;-67
2022/06/30 11:04:47;;;;;;;3.92;3.60;;;;;;;;;;6163757;28;20330;-66
2022/06/30 11:08:27;;;;;;;3.45;3.13;;;;;;;;;;6171884;28;20238;-67
2022/06/30 11:11:53;;;;;;;3.85;3.55;;;;;;;;;;6169573;28;20233;-67
2022/06/30 11:15:15;;;;;;;4.05;3.72;;;;;;;;;;6165547;28;20316;-68
2022/06/30 11:18:36;;;;;;;4.75;3.88;;;;;;;;;;6173698;28;20249;-67
2022/06/30 11:21:56;;;;;;;4.28;3.88;;;;;;;;;;6171167;28;20643;-67
2022/06/30 11:29:04;;;;;;;3.00;2.80;;;;;;;;;;6162441;28;20591;-68
2022/06/30 11:32:24;;;;;;;4.18;3.78;;;;;;;;;;6173293;28;21838;-68
2022/06/30 11:35:45;;;;;;;4.88;3.60;;;;;;;;;;6161046;28;20568;-69
2022/06/30 11:39:06;;;;;;;3.25;3.05;;;;;;;;;;6170609;28;20221;-68
2022/06/30 11:42:27;;;;;;;4.05;3.38;;;;;;;;;;6160399;28;20265;-68
2022/06/30 11:45:49;;;;;;;3.40;3.20;;;;;;;;;;6167503;28;20660;-68
2022/06/30 11:49:09;;;;;;;3.50;3.20;;;;;;;;;;6167789;28;23344;-69
2022/06/30 11:52:33;;;;;;;5.40;3.85;;;;;;;;;;6171511;28;20320;-67
2022/06/30 11:55:54;;;;;;;5.18;3.50;;;;;;;;;;6166975;28;20238;-68
2022/06/30 11:59:15;;;;;;;4.78;4.25;;;;;;;;;;6167209;28;20242;-68
2022/06/30 12:02:40;;;;;;;3.40;3.10;;;;;;;;;;6166458;28;20659;-69
2022/06/30 12:06:01;;;;;;;3.60;3.20;;;;;;;;;;6168814;28;20612;-68
2022/06/30 12:09:21;;;;;;;3.95;3.60;;;;;;;;;;6170877;28;20310;-68
2022/06/30 12:12:42;;;;;;;3.60;3.30;;;;;;;;;;6164657;28;20230;-69
2022/06/30 12:16:06;;;;;;;3.80;3.50;;;;;;;;;;6173979;28;20234;-70
2022/06/30 12:19:28;;;;;;;4.30;3.88;;;;;;;;;;6170802;28;20496;-69
2022/06/30 12:22:51;;;;;;;4.05;3.50;;;;;;;;;;6166086;28;20234;-69
2022/06/30 12:26:11;;;;;;;4.22;3.55;;;;;;;;;;6170081;28;20238;-72
2022/06/30 12:29:32;;;;;;;3.78;3.47;;;;;;;;;;6169734;28;20241;-71
2022/06/30 12:32:53;;;;;;;4.20;3.45;;;;;;;;;;6165334;28;20238;-69
2022/06/30 12:36:16;;;;;;;4.00;3.60;;;;;;;;;;6156884;28;20233;-68
2022/06/30 12:39:43;;;;;;;3.92;3.40;;;;;;;;;;6170893;28;20238;-68
2022/06/30 12:43:04;;;;;;;3.78;3.58;;;;;;;;;;6167907;28;20224;-70
2022/06/30 12:46:37;;;;;;;4.22;3.90;;;;;;;;;;6169523;28;20226;-70
2022/06/30 12:50:18;;;;;;;5.38;3.10;;;;;;;;;;6153440;28;20236;-71
2022/06/30 12:53:40;;;;;;;3.35;3.05;;;;;;;;;;6159193;28;20237;-72
2022/06/30 12:57:05;;;;;;;4.53;2.97;;;;;;;;;;6164930;28;21699;-71
2022/06/30 13:00:43;;;;;;;4.00;3.70;;;;;;;;;;6171441;28;20257;-76
2022/06/30 13:04:05;;;;;;;4.28;3.95;;;;;;;;;;6167893;28;20263;-69
2022/06/30 13:07:26;;;;;;;5.10;3.35;;;;;;;;;;6155721;28;20238;-69
2022/06/30 13:11:06;;;;;;;3.78;2.70;;;;;;;;;;6171593;28;20309;-71
2022/06/30 13:14:27;;;;;;;3.58;3.28;;;;;;;;;;6173959;28;20753;-71
2022/06/30 13:17:47;;;;;;;5.45;4.00;;;;;;;;;;6169779;28;20234;-70
2022/06/30 13:21:07;;;;;;;3.40;3.20;;;;;;;;;;6172302;28;20569;-71
2022/06/30 13:24:28;;;;;;;7.20;5.20;;;;;;;;;;6177168;28;20623;-72
2022/06/30 13:27:50;;;;;;;3.35;3.15;;;;;;;;;;6178391;28;20623;-74
2022/06/30 13:31:10;;;;;;;3.72;3.05;;;;;;;;;;6174946;28;20245;-72
2022/06/30 13:34:32;;;;;;;3.65;3.35;;;;;;;;;;6176732;28;20225;-71
2022/06/30 13:37:52;;;;;;;3.13;2.75;;;;;;;;;;6170227;28;20766;-73
2022/06/30 13:41:14;;;;;;;3.60;2.80;;;;;;;;;;6179253;28;20241;-71
2022/06/30 13:44:35;;;;;;;3.50;3.30;;;;;;;;;;6179037;28;20241;-72
2022/06/30 13:47:56;;;;;;;4.75;4.00;;;;;;;;;;6178084;28;20739;-70
2022/06/30 13:51:16;;;;;;;3.20;2.90;;;;;;;;;;6174780;28;20230;-71
2022/06/30 13:54:38;;;;;;;3.55;3.17;;;;;;;;;;6180573;28;20226;-72
2022/06/30 13:57:59;;;;;;;3.72;3.42;;;;;;;;;;6179227;28;20697;-71
2022/06/30 14:01:21;;;;;;;3.67;3.30;;;;;;;;;;6174149;28;20223;-72
2022/06/30 14:04:42;;;;;;;3.20;2.92;;;;;;;;;;6178438;28;20258;-73
2022/06/30 14:08:02;;;;;;;3.55;3.25;;;;;;;;;;6176767;28;20230;-72
2022/06/30 14:11:23;;;;;;;3.90;3.42;;;;;;;;;;6174800;28;20258;-73
2022/06/30 14:14:44;;;;;;;3.97;3.20;;;;;;;;;;6186899;28;20343;-74
2022/06/30 14:18:06;;;;;;;3.83;3.53;;;;;;;;;;6185007;28;20229;-71
2022/06/30 14:21:27;;;;;;;3.13;2.92;;;;;;;;;;6176376;28;20234;-72
2022/06/30 14:24:47;;;;;;;6.15;3.65;;;;;;;;;;6176580;28;20238;-69
2022/06/30 14:28:08;;;;;;;3.75;3.45;;;;;;;;;;6167134;28;20249;-72
2022/06/30 14:31:29;;;;;;;4.00;3.70;;;;;;;;;;6177423;28;20261;-70
2022/06/30 14:34:51;;;;;;;7.30;3.17;;;;;;;;;;6181402;28;20512;-70
2022/06/30 14:38:12;;;;;;;3.40;2.88;;;;;;;;;;6181033;28;20805;-68
2022/06/30 14:45:11;;;;;;;5.05;3.80;;;;;;;;;;6184120;28;20687;-68
2022/06/30 14:48:32;;;;;;;3.00;2.80;;;;;;;;;;6176479;28;20277;-72
2022/06/30 14:51:54;;;;;;;3.83;3.53;;;;;;;;;;6168937;28;20245;-71
2022/06/30 14:55:15;;;;;;;4.55;3.28;;;;;;;;;;6174452;28;22840;-72
2022/06/30 14:58:36;;;;;;;3.53;3.22;;;;;;;;;;6175821;28;20229;-74
2022/06/30 15:01:56;;;;;;;4.18;3.80;;;;;;;;;;6168242;28;20809;-71
2022/06/30 15:05:22;;;;;;;4.30;3.90;;;;;;;;;;6174579;28;20233;-72
2022/06/30 15:08:44;;;;;;;3.50;3.22;;;;;;;;;;6167610;28;20565;-72
2022/06/30 15:12:05;;;;;;;4.45;3.83;;;;;;;;;;6160918;28;21720;-72
2022/06/30 15:15:25;;;;;;;4.18;3.15;;;;;;;;;;6168904;28;20271;-73
2022/06/30 15:18:46;;;;;;;4.20;3.88;;;;;;;;;;6168575;28;20567;-73
2022/06/30 15:25:46;;;;;;;4.15;3.75;;;;;;;;;;6166936;28;20233;-72
2022/06/30 15:29:07;;;;;;;5.78;4.40;;;;;;;;;;6166411;28;20236;-73
2022/06/30 15:32:30;;;;;;;5.05;3.72;;;;;;;;;;6164803;28;20269;-74
2022/06/30 15:35:55;;;;;;;3.33;3.03;;;;;;;;;;6168588;28;20328;-71
2022/06/30 15:39:16;;;;;;;4.15;3.42;;;;;;;;;;6166789;28;20246;-72
2022/06/30 15:42:40;;;;;;;4.28;3.85;;;;;;;;;;6174445;28;20229;-72
2022/06/30 15:46:01;;;;;;;3.58;3.17;;;;;;;;;;6159641;28;20257;-72
2022/06/30 15:49:22;;;;;;;3.60;3.30;;;;;;;;;;6171796;28;20229;-72
2022/06/30 15:52:43;;;;;;;4.93;4.10;;;;;;;;;;6168367;28;20234;-72
2022/06/30 15:56:07;;;;;;;3.50;3.20;;;;;;;;;;6167069;28;20234;-70
2022/06/30 15:59:30;;;;;;;4.28;3.13;;;;;;;;;;6158484;28;20226;-71
2022/06/30 16:02:50;;;;;;;4.35;2.95;;;;;;;;;;6156814;28;20236;-72
2022/06/30 16:06:11;;;;;;;3.42;2.47;;;;;;;;;;6162482;28;20291;-72
2022/06/30 16:09:31;;;;;;;2.70;2.50;;;;;;;;;;6153560;28;20229;-72
2022/06/30 16:12:52;;;;;;;4.82;2.97;;;;;;;;;;6157942;28;20237;-73
2022/06/30 16:16:14;;;;;;;3.35;2.63;;;;;;;;;;6163865;28;20261;-72
2022/06/30 16:19:35;;;;;;;4.13;2.50;;;;;;;;;;6172546;28;20607;-72
2022/06/30 16:22:56;;;;;;;3.58;3.28;;;;;;;;;;6176890;28;20229;-72
2022/06/30 16:26:16;;;;;;;2.85;2.55;;;;;;;;;;6165465;28;20233;-72
2022/06/30 16:29:37;;;;;;;3.78;2.80;;;;;;;;;;6166211;28;20234;-73
2022/06/30 16:32:58;;;;;;;4.95;2.67;;;;;;;;;;6174117;28;20226;-72
2022/06/30 16:36:19;;;;;;;4.10;2.50;;;;;;;;;;6166847;28;20328;-73
2022/06/30 16:39:41;;;;;;;3.33;2.40;;;;;;;;;;6164899;28;20222;-72
2022/06/30 16:43:04;;;;;;;2.00;1.90;;;;;;;;;;6168509;28;20235;-73
2022/06/30 16:46:25;;;;;;;3.60;2.60;;;;;;;;;;6167789;28;20545;-72
2022/06/30 16:49:47;;;;;;;2.95;2.70;;;;;;;;;;6177643;28;20230;-73
2022/06/30 16:53:08;;;;;;;4.10;2.25;;;;;;;;;;6175412;28;20225;-72
2022/06/30 16:56:31;;;;;;;2.70;1.73;;;;;;;;;;6178536;28;20591;-73
2022/06/30 16:59:53;;;;;;;3.28;2.33;;;;;;;;;;6180381;28;20834;-72
2022/06/30 17:03:14;;;;;;;2.92;1.85;;;;;;;;;;6179871;28;20233;-72
2022/06/30 17:06:38;;;;;;;3.45;2.30;;;;;;;;;;6181775;28;20218;-72
2022/06/30 17:10:03;;;;;;;3.75;2.30;;;;;;;;;;6163278;28;20231;-72
2022/06/30 17:13:26;;;;;;;3.78;2.42;;;;;;;;;;6172469;28;20611;-73
2022/06/30 17:16:46;;;;;;;3.00;2.80;;;;;;;;;;6178453;28;20229;-73
2022/06/30 17:20:08;;;;;;;2.17;1.98;;;;;;;;;;6177049;28;20234;-73
2022/06/30 17:23:29;;;;;;;3.58;3.03;;;;;;;;;;6178659;28;20312;-73
2022/06/30 17:26:51;;;;;;;3.30;2.70;;;;;;;;;;6178921;28;20234;-72
2022/06/30 17:30:12;;;;;;;2.90;2.70;;;;;;;;;;6180019;28;20234;-73
2022/06/30 17:33:32;;;;;;;2.60;2.40;;;;;;;;;;6176564;28;20258;-73
2022/06/30 17:36:54;;;;;;;3.60;3.17;;;;;;;;;;6180746;28;20354;-73
2022/06/30 17:40:16;;;;;;;3.22;2.33;;;;;;;;;;6178676;28;20233;-72
2022/06/30 17:43:36;;;;;;;4.47;2.85;;;;;;;;;;6178961;28;20237;-74
2022/06/30 17:46:57;;;;;;;3.72;3.08;;;;;;;;;;6189620;28;20772;-74
2022/06/30 17:50:18;;;;;;;2.10;1.95;;;;;;;;;;6181871;28;20237;-73
2022/06/30 17:53:38;;;;;;;4.28;2.60;;;;;;;;;;6172081;28;20515;-70
2022/06/30 17:57:01;;;;;;;2.92;2.17;;;;;;;;;;6175749;28;20241;-73
2022/06/30 18:00:22;;;;;;;2.60;2.38;;;;;;;;;;6184365;28;21684;-72
2022/06/30 18:03:44;;;;;;;2.05;1.88;;;;;;;;;;6182557;28;20683;-73
2022/06/30 18:14:23;;;;;;;2.47;2.28;;;;;;;;;;6178189;28;20305;-71
2022/06/30 18:17:44;;;;;;;2.30;2.10;;;;;;;;;;6181421;28;20234;-71
2022/06/30 18:21:04;;;;;;;6.50;2.67;;;;;;;;;;6168734;28;20225;-70
2022/06/30 18:24:25;;;;;;;2.22;2.00;;;;;;;;;;6183228;28;20225;-71
2022/06/30 18:27:46;;;;;;;4.18;2.60;;;;;;;;;;6174508;28;20950;-71
2022/06/30 18:31:10;;;;;;;2.72;2.10;;;;;;;;;;6175562;28;20230;-71
2022/06/30 18:34:33;;;;;;;4.68;2.55;;;;;;;;;;6181804;28;20667;-71
2022/06/30 18:37:53;;;;;;;3.60;2.85;;;;;;;;;;6176087;28;20232;-71
2022/06/30 18:41:27;;;;;;;3.50;2.78;;;;;;;;;;6174598;28;20234;-72
2022/06/30 18:44:47;;;;;;;7.63;3.22;;;;;;;;;;6176018;28;20572;-71
2022/06/30 18:48:09;;;;;;;3.75;2.28;;;;;;;;;;6180193;28;20632;-71
2022/06/30 18:51:30;;;;;;;4.63;3.05;;;;;;;;;;6168518;28;20226;-72
2022/06/30 18:54:51;;;;;;;3.15;2.92;;;;;;;;;;6160293;28;20610;-72
2022/06/30 18:58:14;;;;;;;2.63;2.42;;;;;;;;;;6167085;28;20548;-73
2022/06/30 19:01:35;;;;;;;2.78;2.38;;;;;;;;;;6180260;28;20230;-72
2022/06/30 19:04:57;;;;;;;2.78;2.45;;;;;;;;;;6178538;28;20225;-71
2022/06/30 19:08:17;;;;;;;3.72;2.92;;;;;;;;;;6179201;28;20230;-71
2022/06/30 19:11:37;;;;;;;3.05;2.75;;;;;;;;;;6176507;28;20947;-71
2022/06/30 19:14:58;;;;;;;5.28;3.05;;;;;;;;;;6176110;28;20238;-72
2022/06/30 19:18:19;;;;;;;4.10;2.70;;;;;;;;;;6181981;28;20234;-71
2022/06/30 19:21:41;;;;;;;5.00;2.72;;;;;;;;;;6175676;28;20230;-71
2022/06/30 19:25:01;;;;;;;2.70;2.50;;;;;;;;;;6176963;28;20238;-71
2022/06/30 19:28:23;;;;;;;3.58;2.35;;;;;;;;;;6168284;28;20225;-71
2022/06/30 19:31:44;;;;;;;3.35;2.65;;;;;;;;;;6168736;28;20358;-71
2022/06/30 19:35:08;;;;;;;4.90;3.10;;;;;;;;;;6171768;28;20245;-71
2022/06/30 19:38:31;;;;;;;3.60;2.92;;;;;;;;;;6169723;28;20226;-71
2022/06/30 19:42:27;;;;;;;4.50;2.42;;;;;;;;;;6163650;28;20265;-72
2022/06/30 19:45:33;;;;;;;3.38;2.80;;;;;;;;;;6163980;28;20324;-70
2022/06/30 19:48:53;;;;;;;3.75;3.45;;;;;;;;;;6168489;28;20242;-71
2022/06/30 19:52:14;;;;;;;3.72;3.17;;;;;;;;;;6167995;28;20238;-72
2022/06/30 19:55:36;;;;;;;3.63;3.33;;;;;;;;;;6170551;28;20253;-71
2022/06/30 19:58:56;;;;;;;4.07;3.33;;;;;;;;;;6176932;28;20729;-72
2022/06/30 20:02:17;;;;;;;4.30;3.88;;;;;;;;;;6170364;28;20233;-72
2022/06/30 20:05:36;;;;;;;5.05;2.92;;;;;;;;;;6173042;28;20227;-69
2022/06/30 20:12:36;;;;;;;3.35;3.05;;;;;;;;;;6169838;28;20356;-71
2022/06/30 20:15:59;;;;;;;4.05;3.70;;;;;;;;;;6176691;28;20617;-70
2022/06/30 20:19:22;;;;;;;4.32;3.92;;;;;;;;;;6175417;28;20241;-70
2022/06/30 20:22:43;;;;;;;5.65;3.75;;;;;;;;;;6174877;28;20659;-70
2022/06/30 20:26:03;;;;;;;3.80;3.25;;;;;;;;;;6173674;28;20242;-70
2022/06/30 20:29:25;;;;;;;3.97;3.67;;;;;;;;;;6182508;28;20320;-69
2022/06/30 20:32:46;;;;;;;4.50;3.58;;;;;;;;;;6183126;28;20591;-69
2022/06/30 20:36:07;;;;;;;3.55;3.25;;;;;;;;;;6178240;28;20221;-69
2022/06/30 20:39:27;;;;;;;5.25;4.30;;;;;;;;;;6178239;28;20237;-70
2022/06/30 20:42:48;;;;;;;4.07;3.78;;;;;;;;;;6181356;28;20250;-70
2022/06/30 20:46:10;;;;;;;3.78;3.47;;;;;;;;;;6170373;28;20225;-69
2022/06/30 20:53:09;;;;;;;5.70;4.65;;;;;;;;;;6174601;28;20233;-70